createdAt,value
2023-04-12T00:01:01.451Z,7.60
2023-04-12T00:03:28.196Z,7.61
2023-04-12T00:05:55.341Z,7.78
2023-04-12T00:08:33.633Z,7.74
2023-04-12T00:11:02.143Z,7.79
2023-04-12T00:13:29.853Z,7.74
2023-04-12T00:15:56.656Z,7.81
2023-04-12T00:18:25.347Z,7.83
2023-04-12T00:20:52.610Z,7.89
2023-04-12T00:23:19.340Z,7.90
2023-04-12T00:25:46.407Z,7.80
2023-04-12T00:28:13.085Z,7.89
2023-04-12T00:30:41.300Z,7.83
2023-04-12T00:33:08.496Z,7.84
2023-04-12T00:35:35.179Z,7.69
2023-04-12T00:38:03.721Z,7.76
2023-04-12T00:40:30.835Z,7.75
2023-04-12T00:42:57.941Z,7.68
2023-04-12T00:45:24.526Z,7.64
2023-04-12T00:47:51.310Z,7.53
2023-04-12T00:50:18.280Z,7.59
2023-04-12T00:52:45.219Z,7.56
2023-04-12T00:55:12.061Z,7.55
2023-04-12T00:57:40.512Z,7.60
2023-04-12T01:00:13.147Z,7.56
2023-04-12T01:02:50.566Z,7.48
2023-04-12T01:05:23.845Z,7.54
2023-04-12T01:08:28.461Z,7.52
2023-04-12T01:11:17.999Z,7.56
2023-04-12T01:13:59.805Z,7.57
2023-04-12T01:16:41.535Z,7.47
2023-04-12T01:19:47.647Z,7.51
2023-04-12T01:22:27.083Z,7.42
2023-04-12T01:25:34.379Z,7.36
2023-04-12T01:28:03.504Z,7.31
2023-04-12T01:30:31.796Z,7.25
2023-04-12T01:33:01.894Z,7.34
2023-04-12T01:35:30.936Z,7.43
2023-04-12T01:37:58.855Z,7.53
2023-04-12T01:40:28.139Z,7.54
2023-04-12T01:43:11.634Z,7.58
2023-04-12T01:45:39.069Z,7.61
2023-04-12T01:48:09.292Z,7.64
2023-04-12T01:50:41.585Z,7.67
2023-04-12T01:53:14.107Z,7.65
2023-04-12T01:55:45.967Z,7.54
2023-04-12T01:58:14.914Z,7.54
2023-04-12T02:00:44.459Z,7.49
2023-04-12T02:03:12.879Z,7.50
2023-04-12T02:05:39.932Z,7.41
2023-04-12T02:08:06.971Z,7.47
2023-04-12T02:10:36.585Z,7.38
2023-04-12T02:13:04.395Z,7.32
2023-04-12T02:15:31.461Z,7.29
2023-04-12T02:17:59.513Z,7.29
2023-04-12T02:20:27.279Z,7.38
2023-04-12T02:22:54.308Z,7.45
2023-04-12T02:25:21.375Z,7.52
2023-04-12T02:27:48.911Z,7.43
2023-04-12T02:30:15.739Z,7.47
2023-04-12T02:32:45.337Z,7.54
2023-04-12T02:35:19.210Z,7.48
2023-04-12T02:37:48.669Z,7.43
2023-04-12T02:40:18.578Z,7.49
2023-04-12T02:42:45.758Z,7.35
2023-04-12T02:45:12.379Z,7.34
2023-04-12T02:47:40.303Z,7.34
2023-04-12T02:50:07.808Z,7.49
2023-04-12T02:52:34.532Z,7.48
2023-04-12T02:55:01.259Z,7.51
2023-04-12T02:57:27.871Z,7.55
2023-04-12T02:59:55.009Z,7.60
2023-04-12T03:02:22.940Z,7.59
2023-04-12T03:04:53.394Z,7.55
2023-04-12T03:07:21.380Z,7.59
2023-04-12T03:09:50.184Z,7.54
2023-04-12T03:12:17.167Z,7.56
2023-04-12T03:14:43.904Z,7.50
2023-04-12T03:17:11.098Z,7.60
2023-04-12T03:19:37.827Z,7.59
2023-04-12T03:22:06.125Z,7.69
2023-04-12T03:24:37.211Z,7.71
2023-04-12T03:27:05.453Z,7.65
2023-04-12T03:29:32.719Z,7.71
2023-04-12T03:31:59.676Z,7.72
2023-04-12T03:34:32.218Z,7.74
2023-04-12T03:37:02.438Z,7.71
2023-04-12T03:39:29.226Z,7.80
2023-04-12T03:41:56.126Z,7.78
2023-04-12T03:44:26.159Z,7.80
2023-04-12T03:46:53.099Z,7.80
2023-04-12T03:49:19.932Z,7.80
2023-04-12T03:51:46.642Z,7.75
2023-04-12T03:54:13.337Z,7.79
2023-04-12T03:56:40.057Z,7.78
2023-04-12T03:59:10.036Z,7.84
2023-04-12T04:01:37.320Z,7.88
2023-04-12T04:04:04.501Z,7.86
2023-04-12T04:06:31.438Z,7.82
2023-04-12T04:08:58.516Z,7.83
2023-04-12T04:11:25.656Z,7.79
2023-04-12T04:13:52.464Z,7.77
2023-04-12T04:16:19.395Z,7.78
2023-04-12T04:18:46.261Z,7.65
2023-04-12T04:21:14.321Z,7.62
2023-04-12T04:23:45.130Z,7.57
2023-04-12T04:26:12.492Z,7.67
2023-04-12T04:28:42.249Z,7.47
2023-04-12T04:31:10.522Z,7.45
2023-04-12T04:33:39.042Z,7.41
2023-04-12T04:36:09.885Z,7.30
2023-04-12T04:38:36.769Z,7.38
2023-04-12T04:41:03.634Z,7.36
2023-04-12T04:43:31.361Z,7.42
2023-04-12T04:45:58.434Z,7.39
2023-04-12T04:48:25.213Z,7.38
2023-04-12T04:50:51.832Z,7.47
2023-04-12T04:53:20.107Z,7.44
2023-04-12T04:55:47.844Z,7.49
2023-04-12T04:58:16.225Z,7.44
2023-04-12T05:00:44.947Z,7.45
2023-04-12T05:03:12.133Z,7.47
2023-04-12T05:05:39.184Z,7.50
2023-04-12T05:08:06.292Z,7.57
2023-04-12T05:10:33.220Z,7.55
2023-04-12T05:12:59.865Z,7.59
2023-04-12T05:15:26.493Z,7.59
2023-04-12T05:17:53.164Z,7.62
2023-04-12T05:20:19.945Z,7.72
2023-04-12T05:22:46.683Z,7.75
2023-04-12T05:25:13.440Z,7.67
2023-04-12T05:27:40.160Z,7.76
2023-04-12T05:30:08.044Z,7.77
2023-04-12T05:32:34.751Z,7.71
2023-04-12T05:35:01.758Z,7.70
2023-04-12T05:37:28.603Z,7.69
2023-04-12T05:39:58.264Z,7.68
2023-04-12T05:42:24.946Z,7.74
2023-04-12T05:44:52.016Z,7.70
2023-04-12T05:47:18.710Z,7.71
2023-04-12T05:49:45.533Z,7.51
2023-04-12T05:52:12.156Z,7.80
2023-04-12T05:54:38.777Z,7.81
2023-04-12T05:57:05.703Z,7.86
2023-04-12T05:59:32.305Z,7.90
2023-04-12T06:01:59.347Z,7.93
2023-04-12T06:04:42.166Z,7.92
2023-04-12T06:09:42.224Z,8.00
2023-04-12T06:12:08.820Z,7.96
2023-04-12T06:14:35.479Z,7.79
2023-04-12T06:17:02.183Z,7.88
2023-04-12T06:19:28.899Z,7.82
2023-04-12T06:21:55.536Z,7.95
2023-04-12T06:24:22.235Z,8.09
2023-04-12T06:26:48.880Z,8.12
2023-04-12T06:29:15.595Z,8.20
2023-04-12T06:31:42.320Z,8.17
2023-04-12T06:34:09.004Z,8.36
2023-04-12T06:36:35.644Z,8.37
2023-04-12T06:39:03.205Z,8.40
2023-04-12T06:41:29.825Z,8.23
2023-04-12T06:43:56.466Z,8.52
2023-04-12T06:46:27.605Z,8.40
2023-04-12T06:48:54.390Z,8.39
2023-04-12T06:51:21.092Z,8.24
2023-04-12T06:53:47.930Z,8.07
2023-04-12T06:56:16.014Z,8.18
2023-04-12T06:58:44.900Z,8.19
2023-04-12T07:01:11.580Z,8.19
2023-04-12T07:03:39.044Z,8.36
2023-04-12T07:06:21.472Z,8.56
2023-04-12T07:08:51.488Z,9.21
2023-04-12T07:11:21.345Z,9.51
2023-04-12T07:13:48.904Z,9.63
2023-04-12T07:16:16.395Z,9.70
2023-04-12T07:18:42.961Z,9.52
2023-04-12T07:21:09.681Z,9.50
2023-04-12T07:23:36.289Z,9.42
2023-04-12T07:26:02.956Z,9.12
2023-04-12T07:28:29.685Z,9.28
2023-04-12T07:30:56.319Z,9.54
2023-04-12T07:33:23.381Z,9.67
2023-04-12T07:35:50.087Z,9.87
2023-04-12T07:38:17.154Z,10.04
2023-04-12T07:40:43.974Z,9.99
2023-04-12T07:43:10.682Z,10.35
2023-04-12T07:45:38.182Z,10.36
2023-04-12T07:48:05.770Z,9.91
2023-04-12T07:50:32.553Z,10.13
2023-04-12T07:53:21.492Z,10.18
2023-04-12T07:55:48.183Z,10.13
2023-04-12T07:58:16.018Z,10.17
2023-04-12T08:00:43.453Z,9.85
2023-04-12T08:03:12.952Z,9.74
2023-04-12T08:05:40.281Z,9.56
2023-04-12T08:08:08.536Z,9.32
2023-04-12T08:10:35.169Z,8.91
2023-04-12T08:13:01.862Z,9.00
2023-04-12T08:15:28.495Z,9.24
2023-04-12T08:17:55.424Z,9.35
2023-04-12T08:20:22.128Z,9.64
2023-04-12T08:22:49.536Z,9.68
2023-04-12T08:25:16.458Z,9.66
2023-04-12T08:27:43.573Z,9.86
2023-04-12T08:30:11.705Z,9.82
2023-04-12T08:32:39.334Z,9.75
2023-04-12T08:35:07.113Z,9.91
2023-04-12T08:37:34.343Z,9.83
2023-04-12T08:40:04.943Z,10.16
2023-04-12T08:42:34.262Z,10.08
2023-04-12T08:45:06.336Z,10.21
2023-04-12T08:47:37.084Z,10.37
2023-04-12T08:50:08.230Z,10.60
2023-04-12T08:52:36.537Z,10.79
2023-04-12T08:55:04.381Z,10.89
2023-04-12T08:57:32.903Z,10.70
2023-04-12T09:00:04.850Z,10.67
2023-04-12T09:02:31.893Z,10.79
2023-04-12T09:04:58.825Z,10.61
2023-04-12T09:07:30.557Z,10.65
2023-04-12T09:09:58.860Z,10.91
2023-04-12T09:12:25.975Z,11.52
2023-04-12T09:15:13.581Z,11.30
2023-04-12T09:17:42.602Z,10.71
2023-04-12T09:20:12.356Z,11.12
2023-04-12T09:22:44.328Z,11.17
2023-04-12T09:25:11.873Z,11.06
2023-04-12T09:27:52.076Z,11.27
2023-04-12T09:30:20.139Z,11.33
2023-04-12T09:32:51.028Z,11.45
2023-04-12T09:35:18.084Z,11.50
2023-04-12T09:37:44.758Z,11.54
2023-04-12T09:40:11.987Z,11.79
2023-04-12T09:42:56.286Z,11.68
2023-04-12T09:45:25.529Z,11.98
2023-04-12T09:47:54.033Z,12.11
2023-04-12T09:50:26.618Z,11.58
2023-04-12T09:52:54.966Z,11.52
2023-04-12T09:55:23.638Z,11.64
2023-04-12T09:57:52.378Z,11.42
2023-04-12T10:00:22.483Z,11.46
2023-04-12T10:02:53.789Z,11.69
2023-04-12T10:05:25.285Z,11.50
2023-04-12T10:07:53.081Z,11.50
2023-04-12T10:10:21.192Z,11.35
2023-04-12T10:12:49.138Z,11.65
2023-04-12T10:15:21.846Z,11.77
2023-04-12T10:17:53.949Z,11.47
2023-04-12T10:20:24.781Z,11.64
2023-04-12T10:22:53.500Z,11.88
2023-04-12T10:25:22.762Z,11.49
2023-04-12T10:27:49.892Z,12.04
2023-04-12T10:30:23.404Z,12.13
2023-04-12T10:33:10.414Z,12.15
2023-04-12T10:35:58.003Z,11.78
2023-04-12T10:38:26.949Z,11.97
2023-04-12T10:41:15.791Z,12.37
2023-04-12T10:43:52.094Z,12.87
2023-04-12T10:46:41.024Z,12.78
2023-04-12T10:49:09.864Z,12.61
2023-04-12T10:51:36.728Z,12.57
2023-04-12T10:54:12.458Z,12.97
2023-04-12T10:56:47.682Z,12.59
2023-04-12T10:59:16.703Z,12.71
2023-04-12T11:02:10.557Z,12.60
2023-04-12T11:04:37.587Z,12.83
2023-04-12T11:07:10.218Z,12.98
2023-04-12T11:09:36.857Z,12.79
2023-04-12T11:12:08.784Z,13.01
2023-04-12T11:14:38.773Z,13.12
2023-04-12T11:17:08.521Z,12.77
2023-04-12T11:19:40.205Z,12.85
2023-04-12T11:22:09.307Z,12.97
2023-04-12T11:24:59.905Z,12.82
2023-04-12T11:27:27.789Z,12.69
2023-04-12T11:29:56.835Z,12.71
2023-04-12T11:32:26.451Z,12.95
2023-04-12T11:34:55.546Z,12.94
2023-04-12T11:37:23.343Z,12.80
2023-04-12T11:39:55.995Z,12.67
2023-04-12T11:42:27.294Z,12.56
2023-04-12T11:44:59.851Z,12.88
2023-04-12T11:47:30.187Z,12.67
2023-04-12T11:49:59.006Z,12.67
2023-04-12T11:52:30.750Z,12.79
2023-04-12T11:55:01.428Z,12.78
2023-04-12T11:57:29.277Z,12.72
2023-04-12T11:59:58.822Z,12.60
2023-04-12T12:02:29.124Z,12.62
2023-04-12T12:04:58.947Z,12.56
2023-04-12T12:07:26.732Z,12.60
2023-04-12T12:09:54.037Z,12.94
2023-04-12T12:12:24.130Z,13.01
2023-04-12T12:14:50.912Z,13.03
2023-04-12T12:17:17.664Z,12.98
2023-04-12T12:19:45.783Z,13.19
2023-04-12T12:22:20.708Z,13.24
2023-04-12T12:25:00.398Z,13.10
2023-04-12T12:27:43.335Z,13.21
2023-04-12T12:30:12.298Z,12.70
2023-04-12T12:32:40.548Z,12.93
2023-04-12T12:35:12.171Z,12.98
2023-04-12T12:37:56.085Z,13.06
2023-04-12T12:40:32.456Z,12.72
2023-04-12T12:43:00.330Z,12.70
2023-04-12T12:45:29.188Z,12.66
2023-04-12T12:48:05.177Z,12.92
2023-04-12T12:50:34.226Z,13.12
2023-04-12T12:53:02.316Z,13.14
2023-04-12T12:55:31.000Z,13.11
2023-04-12T13:00:29.428Z,12.97
2023-04-12T13:02:56.672Z,13.05
2023-04-12T13:05:23.764Z,12.92
2023-04-12T13:07:50.611Z,12.87
2023-04-12T13:10:17.516Z,13.06
2023-04-12T13:12:44.140Z,12.88
2023-04-12T13:15:22.035Z,12.97
2023-04-12T13:17:52.081Z,12.67
2023-04-12T13:20:18.836Z,12.58
2023-04-12T13:22:45.562Z,13.10
2023-04-12T13:25:12.290Z,12.98
2023-04-12T13:27:39.165Z,12.79
2023-04-12T13:30:07.172Z,13.08
2023-04-12T13:32:33.876Z,13.21
2023-04-12T13:35:00.642Z,12.94
2023-04-12T13:37:27.435Z,13.01
2023-04-12T13:39:54.142Z,12.96
2023-04-12T13:42:22.339Z,12.52
2023-04-12T13:44:49.025Z,13.21
2023-04-12T13:47:17.858Z,13.08
2023-04-12T13:49:44.766Z,13.25
2023-04-12T13:52:11.750Z,13.32
2023-04-12T13:54:38.687Z,13.44
2023-04-12T13:57:06.072Z,13.43
2023-04-12T13:59:33.018Z,13.34
2023-04-12T14:02:00.826Z,13.38
2023-04-12T14:04:28.723Z,13.26
2023-04-12T14:06:56.021Z,12.66
2023-04-12T14:09:30.720Z,13.13
2023-04-12T14:11:58.798Z,13.08
2023-04-12T14:14:26.436Z,13.32
2023-04-12T14:16:57.766Z,13.21
2023-04-12T14:19:24.953Z,13.29
2023-04-12T14:21:51.899Z,13.25
2023-04-12T14:24:19.499Z,13.12
2023-04-12T14:26:46.909Z,12.86
2023-04-12T14:29:13.678Z,12.89
2023-04-12T14:31:40.626Z,13.08
2023-04-12T14:34:10.988Z,13.24
2023-04-12T14:36:37.714Z,13.18
2023-04-12T14:39:06.976Z,13.07
2023-04-12T14:41:35.822Z,12.95
2023-04-12T14:44:02.760Z,12.86
2023-04-12T14:46:30.862Z,12.88
2023-04-12T14:48:59.738Z,12.97
2023-04-12T14:51:27.830Z,13.02
2023-04-12T14:53:54.527Z,13.39
2023-04-12T14:56:24.668Z,12.76
2023-04-12T14:58:56.036Z,13.04
2023-04-12T15:01:23.879Z,13.06
2023-04-12T15:03:52.372Z,12.83
2023-04-12T15:06:20.974Z,12.69
2023-04-12T15:08:49.530Z,12.76
2023-04-12T15:11:19.183Z,12.81
2023-04-12T15:13:45.993Z,12.84
2023-04-12T15:16:12.763Z,12.24
2023-04-12T15:18:41.628Z,12.76
2023-04-12T15:21:10.472Z,12.80
2023-04-12T15:23:38.072Z,12.52
2023-04-12T15:26:06.744Z,12.70
2023-04-12T15:28:33.826Z,12.77
2023-04-12T15:31:01.258Z,12.77
2023-04-12T15:33:29.273Z,12.70
2023-04-12T15:35:56.761Z,12.81
2023-04-12T15:38:26.062Z,12.70
2023-04-12T15:40:57.174Z,12.56
2023-04-12T15:43:36.309Z,12.47
2023-04-12T15:46:12.986Z,12.32
2023-04-12T15:48:39.655Z,12.15
2023-04-12T15:51:06.441Z,12.02
2023-04-12T15:53:33.073Z,11.99
2023-04-12T15:56:00.963Z,12.21
2023-04-12T15:58:27.633Z,12.26
2023-04-12T16:00:54.591Z,11.97
2023-04-12T16:03:26.333Z,12.09
2023-04-12T16:05:54.723Z,12.31
2023-04-12T16:08:22.484Z,12.39
2023-04-12T16:10:50.493Z,12.35
2023-04-12T16:13:17.310Z,12.19
2023-04-12T16:15:44.104Z,12.26
2023-04-12T16:18:11.190Z,11.92
2023-04-12T16:20:37.935Z,11.96
2023-04-12T16:23:05.263Z,11.86
2023-04-12T16:25:33.373Z,11.77
2023-04-12T16:28:02.653Z,11.84
2023-04-12T16:30:32.652Z,11.62
2023-04-12T16:32:59.869Z,11.34
2023-04-12T16:35:26.919Z,11.38
2023-04-12T16:37:54.725Z,11.42
2023-04-12T16:40:22.149Z,11.38
2023-04-12T16:42:48.772Z,11.07
2023-04-12T16:45:15.552Z,11.18
2023-04-12T16:47:42.603Z,11.24
2023-04-12T16:50:10.002Z,10.90
2023-04-12T16:52:37.984Z,10.94
2023-04-12T16:55:05.118Z,10.67
2023-04-12T16:57:32.884Z,10.63
2023-04-12T16:59:59.657Z,10.30
2023-04-12T17:02:26.924Z,10.40
2023-04-12T17:04:53.611Z,10.34
2023-04-12T17:07:20.345Z,10.20
2023-04-12T17:09:46.991Z,10.12
2023-04-12T17:12:13.637Z,9.91
2023-04-12T17:14:40.719Z,9.98
2023-04-12T17:17:07.500Z,9.87
2023-04-12T17:19:34.381Z,9.48
2023-04-12T17:22:01.198Z,9.79
2023-04-12T17:24:29.255Z,9.62
2023-04-12T17:26:57.849Z,9.57
2023-04-12T17:29:24.745Z,9.46
2023-04-12T17:31:54.243Z,9.43
2023-04-12T17:34:22.226Z,9.30
2023-04-12T17:36:49.361Z,9.26
2023-04-12T17:39:16.373Z,9.30
2023-04-12T17:41:43.242Z,9.16
2023-04-12T17:44:09.931Z,9.16
2023-04-12T17:46:36.740Z,9.09
2023-04-12T17:49:05.974Z,9.09
2023-04-12T17:51:33.385Z,8.90
2023-04-12T17:54:00.949Z,8.91
2023-04-12T17:56:28.209Z,9.01
2023-04-12T17:58:55.271Z,9.05
2023-04-12T18:01:22.394Z,9.06
2023-04-12T18:03:49.493Z,8.95
2023-04-12T18:06:18.476Z,8.91
2023-04-12T18:08:45.352Z,8.94
2023-04-12T18:11:13.107Z,8.80
2023-04-12T18:13:39.762Z,8.73
2023-04-12T18:16:07.273Z,8.74
2023-04-12T18:18:34.198Z,8.59
2023-04-12T18:21:06.361Z,8.64
2023-04-12T18:23:33.335Z,8.53
2023-04-12T18:26:00.000Z,8.36
2023-04-12T18:28:27.574Z,8.39
2023-04-12T18:30:57.168Z,8.20
2023-04-12T18:33:24.065Z,8.14
2023-04-12T18:35:51.355Z,8.15
2023-04-12T18:38:18.730Z,8.11
2023-04-12T18:40:45.315Z,8.17
2023-04-12T18:43:12.302Z,8.12
2023-04-12T18:45:41.939Z,8.13
2023-04-12T18:48:09.364Z,8.12
2023-04-12T18:50:39.486Z,8.15
2023-04-12T18:53:07.069Z,8.23
2023-04-12T18:55:33.682Z,8.22
2023-04-12T18:58:00.436Z,8.24
2023-04-12T19:00:27.890Z,8.25
2023-04-12T19:02:55.092Z,8.35
2023-04-12T19:05:22.009Z,8.37
2023-04-12T19:07:48.861Z,8.46
2023-04-12T19:10:15.990Z,8.53
2023-04-12T19:12:42.779Z,8.53
2023-04-12T19:15:10.698Z,8.44
2023-04-12T19:17:39.048Z,8.44
2023-04-12T19:20:07.795Z,8.38
2023-04-12T19:22:34.540Z,8.42
2023-04-12T19:25:01.810Z,8.42
2023-04-12T19:27:29.043Z,8.46
2023-04-12T19:29:56.544Z,8.43
2023-04-12T19:32:23.395Z,8.43
2023-04-12T19:34:50.514Z,8.45
2023-04-12T19:37:18.085Z,8.47
2023-04-12T19:39:44.943Z,8.42
2023-04-12T19:42:12.017Z,8.37
2023-04-12T19:44:40.424Z,8.25
2023-04-12T19:47:07.441Z,8.24
2023-04-12T19:49:35.252Z,8.19
2023-04-12T19:52:05.601Z,8.18
2023-04-12T19:54:33.680Z,8.03
2023-04-12T19:57:00.586Z,7.91
2023-04-12T19:59:30.999Z,8.05
2023-04-12T20:01:58.457Z,8.02
2023-04-12T20:04:25.341Z,7.79
2023-04-12T20:06:52.717Z,7.84
2023-04-12T20:09:20.117Z,7.89
2023-04-12T20:11:47.450Z,7.78
2023-04-12T20:14:14.360Z,7.81
2023-04-12T20:16:45.376Z,7.94
2023-04-12T20:19:14.060Z,8.00
2023-04-12T20:21:40.814Z,7.44
2023-04-12T20:24:09.110Z,8.06
2023-04-12T20:26:36.452Z,7.77
2023-04-12T20:29:06.982Z,8.00
2023-04-12T20:31:33.907Z,7.92
2023-04-12T20:34:00.667Z,7.67
2023-04-12T20:36:29.358Z,7.62
2023-04-12T20:38:56.470Z,7.82
2023-04-12T20:41:24.307Z,7.78
2023-04-12T20:43:51.127Z,7.86
2023-04-12T20:46:20.713Z,7.78
2023-04-12T20:48:49.822Z,7.65
2023-04-12T20:51:18.736Z,7.68
2023-04-12T20:53:47.468Z,7.71
2023-04-12T20:56:15.281Z,7.56
2023-04-12T20:58:43.045Z,7.45
2023-04-12T21:01:14.833Z,7.43
2023-04-12T21:03:43.417Z,7.30
2023-04-12T21:06:11.078Z,7.32
2023-04-12T21:08:39.054Z,6.78
2023-04-12T21:11:06.331Z,7.26
2023-04-12T21:13:34.616Z,7.15
2023-04-12T21:16:05.675Z,7.24
2023-04-12T21:18:34.153Z,7.25
2023-04-12T21:21:00.898Z,7.08
2023-04-12T21:23:30.869Z,7.06
2023-04-12T21:25:57.719Z,6.94
2023-04-12T21:28:24.492Z,6.92
2023-04-12T21:30:55.131Z,6.94
2023-04-12T21:33:25.155Z,6.88
2023-04-12T21:35:55.652Z,6.81
2023-04-12T21:38:23.406Z,6.91
2023-04-12T21:40:51.872Z,6.93
2023-04-12T21:43:18.917Z,6.86
2023-04-12T21:45:46.087Z,6.82
2023-04-12T21:48:14.678Z,6.70
2023-04-12T21:50:42.112Z,6.56
2023-04-12T21:53:09.016Z,6.55
2023-04-12T21:55:36.330Z,6.48
2023-04-12T21:58:03.749Z,6.30
2023-04-12T22:00:32.169Z,6.18
2023-04-12T22:02:59.559Z,5.98
2023-04-12T22:05:27.984Z,5.79
2023-04-12T22:07:55.402Z,5.86
2023-04-12T22:10:22.124Z,5.87
2023-04-12T22:12:51.239Z,5.87
2023-04-12T22:15:17.967Z,5.88
2023-04-12T22:17:45.337Z,5.86
2023-04-12T22:20:13.100Z,5.84
2023-04-12T22:22:40.636Z,5.92
2023-04-12T22:25:08.619Z,5.93
2023-04-12T22:27:35.303Z,5.93
2023-04-12T22:30:03.944Z,5.99
2023-04-12T22:32:32.201Z,5.93
2023-04-12T22:35:08.219Z,5.99
2023-04-12T22:37:36.099Z,6.04
2023-04-12T22:40:05.095Z,6.12
2023-04-12T22:42:32.035Z,6.08
2023-04-12T22:44:58.669Z,6.20
2023-04-12T22:47:26.685Z,6.16
2023-04-12T22:50:01.058Z,6.20
2023-04-12T22:52:30.618Z,6.21
2023-04-12T22:55:00.266Z,6.13
2023-04-12T22:57:27.471Z,6.16
2023-04-12T22:59:54.146Z,5.94
2023-04-12T23:02:20.940Z,6.07
2023-04-12T23:04:49.219Z,6.01
2023-04-12T23:07:16.523Z,5.98
2023-04-12T23:09:45.166Z,6.05
2023-04-12T23:12:12.641Z,5.92
2023-04-12T23:14:40.025Z,5.85
2023-04-12T23:17:07.450Z,5.80
2023-04-12T23:19:34.562Z,5.64
2023-04-12T23:22:01.195Z,5.35
2023-04-12T23:24:27.819Z,5.19
2023-04-12T23:26:57.833Z,5.13
2023-04-12T23:29:25.792Z,5.14
2023-04-12T23:31:52.804Z,5.04
2023-04-12T23:34:22.150Z,5.14
2023-04-12T23:36:50.223Z,5.20
2023-04-12T23:39:18.193Z,5.14
2023-04-12T23:41:46.624Z,4.88
2023-04-12T23:44:13.799Z,4.66
2023-04-12T23:46:40.656Z,4.63
2023-04-12T23:49:07.395Z,4.27
2023-04-12T23:51:33.995Z,4.19
2023-04-12T23:54:00.894Z,3.79
2023-04-12T23:56:27.833Z,3.77
2023-04-12T23:58:54.415Z,3.64
